sensor_id;sensor_type;location;lat;lon;timestamp;temperature;humidity
27376;DHT22;14844;51.302;6.354;2023-12-20T00:00:15;7.30;99.90
27376;DHT22;14844;51.302;6.354;2023-12-20T00:02:42;7.30;99.90
27376;DHT22;14844;51.302;6.354;2023-12-20T00:05:13;7.20;99.90
27376;DHT22;14844;51.302;6.354;2023-12-20T00:07:40;7.20;99.90
27376;DHT22;14844;51.302;6.354;2023-12-20T00:10:07;7.30;99.90
27376;DHT22;14844;51.302;6.354;2023-12-20T00:12:34;7.20;99.90
27376;DHT22;14844;51.302;6.354;2023-12-20T01:04:39;7.10;99.90
27376;DHT22;14844;51.302;6.354;2023-12-20T01:07:24;7.00;99.90
27376;DHT22;14844;51.302;6.354;2023-12-20T02:00:56;6.00;99.90
27376;DHT22;14844;51.302;6.354;2023-12-20T02:34:09;5.70;99.90
27376;DHT22;14844;51.302;6.354;2023-12-20T02:40:03;5.70;99.90
27376;DHT22;14844;51.302;6.354;2023-12-20T03:22:15;5.50;99.90
27376;DHT22;14844;51.302;6.354;2023-12-20T03:42:28;5.50;99.90
27376;DHT22;14844;51.302;6.354;2023-12-20T03:45:29;5.50;99.90
27376;DHT22;14844;51.302;6.354;2023-12-20T04:05:18;5.30;99.90
27376;DHT22;14844;51.302;6.354;2023-12-20T04:17:59;5.30;99.90
27376;DHT22;14844;51.302;6.354;2023-12-20T04:21:35;5.30;99.90
27376;DHT22;14844;51.302;6.354;2023-12-20T04:24:27;5.30;99.90
27376;DHT22;14844;51.302;6.354;2023-12-20T04:33:42;5.40;99.90
27376;DHT22;14844;51.302;6.354;2023-12-20T04:36:29;5.40;99.90
27376;DHT22;14844;51.302;6.354;2023-12-20T04:46:00;5.50;99.90
27376;DHT22;14844;51.302;6.354;2023-12-20T04:55:10;5.50;99.90
27376;DHT22;14844;51.302;6.354;2023-12-20T04:57:40;5.50;99.90
27376;DHT22;14844;51.302;6.354;2023-12-20T05:00:06;5.50;99.90
27376;DHT22;14844;51.302;6.354;2023-12-20T05:02:34;5.60;99.90
27376;DHT22;14844;51.302;6.354;2023-12-20T05:05:00;5.60;99.90
27376;DHT22;14844;51.302;6.354;2023-12-20T05:07:26;5.60;99.90
27376;DHT22;14844;51.302;6.354;2023-12-20T05:09:52;5.60;99.90
27376;DHT22;14844;51.302;6.354;2023-12-20T05:12:57;5.60;99.90
27376;DHT22;14844;51.302;6.354;2023-12-20T05:18:39;5.60;99.90
27376;DHT22;14844;51.302;6.354;2023-12-20T05:24:32;5.70;99.90
27376;DHT22;14844;51.302;6.354;2023-12-20T05:34:56;5.80;99.90
27376;DHT22;14844;51.302;6.354;2023-12-20T05:55:03;5.90;99.90
27376;DHT22;14844;51.302;6.354;2023-12-20T05:57:34;5.90;99.90
27376;DHT22;14844;51.302;6.354;2023-12-20T06:00:21;6.00;99.90
27376;DHT22;14844;51.302;6.354;2023-12-20T06:06:27;6.00;99.90
27376;DHT22;14844;51.302;6.354;2023-12-20T06:09:18;6.10;99.90
27376;DHT22;14844;51.302;6.354;2023-12-20T06:12:30;6.10;99.90
27376;DHT22;14844;51.302;6.354;2023-12-20T06:15:26;6.20;99.90
27376;DHT22;14844;51.302;6.354;2023-12-20T06:18:27;6.20;99.90
27376;DHT22;14844;51.302;6.354;2023-12-20T06:21:47;6.20;99.90
27376;DHT22;14844;51.302;6.354;2023-12-20T06:24:16;6.30;99.90
27376;DHT22;14844;51.302;6.354;2023-12-20T06:26:47;6.30;99.90
27376;DHT22;14844;51.302;6.354;2023-12-20T06:29:20;6.30;99.90
27376;DHT22;14844;51.302;6.354;2023-12-20T06:31:56;6.30;99.90
27376;DHT22;14844;51.302;6.354;2023-12-20T06:34:24;6.30;99.90
27376;DHT22;14844;51.302;6.354;2023-12-20T06:36:49;6.40;99.90
27376;DHT22;14844;51.302;6.354;2023-12-20T06:39:18;6.40;99.90
27376;DHT22;14844;51.302;6.354;2023-12-20T06:41:43;6.40;99.90
27376;DHT22;14844;51.302;6.354;2023-12-20T06:44:09;6.40;99.90
27376;DHT22;14844;51.302;6.354;2023-12-20T06:46:37;6.40;99.90
27376;DHT22;14844;51.302;6.354;2023-12-20T06:49:03;6.40;99.90
27376;DHT22;14844;51.302;6.354;2023-12-20T06:51:29;6.40;99.90
27376;DHT22;14844;51.302;6.354;2023-12-20T06:53:56;6.50;99.90
27376;DHT22;14844;51.302;6.354;2023-12-20T06:56:21;6.50;99.90
27376;DHT22;14844;51.302;6.354;2023-12-20T06:58:47;6.50;99.90
27376;DHT22;14844;51.302;6.354;2023-12-20T07:01:14;6.50;99.90
27376;DHT22;14844;51.302;6.354;2023-12-20T07:03:40;6.60;99.90
27376;DHT22;14844;51.302;6.354;2023-12-20T07:06:06;6.60;99.90
27376;DHT22;14844;51.302;6.354;2023-12-20T07:08:32;6.60;99.90
27376;DHT22;14844;51.302;6.354;2023-12-20T07:10:58;6.60;99.90
27376;DHT22;14844;51.302;6.354;2023-12-20T07:13:23;6.60;99.90
27376;DHT22;14844;51.302;6.354;2023-12-20T07:15:49;6.60;99.90
27376;DHT22;14844;51.302;6.354;2023-12-20T07:18:14;6.70;99.90
27376;DHT22;14844;51.302;6.354;2023-12-20T07:20:40;6.70;99.90
27376;DHT22;14844;51.302;6.354;2023-12-20T07:23:22;6.70;99.90
27376;DHT22;14844;51.302;6.354;2023-12-20T07:25:47;6.60;99.90
27376;DHT22;14844;51.302;6.354;2023-12-20T07:28:13;6.70;99.90
27376;DHT22;14844;51.302;6.354;2023-12-20T07:30:39;6.60;99.90
27376;DHT22;14844;51.302;6.354;2023-12-20T07:33:04;6.60;99.90
27376;DHT22;14844;51.302;6.354;2023-12-20T07:35:33;6.60;99.90
27376;DHT22;14844;51.302;6.354;2023-12-20T07:37:58;6.60;99.90
27376;DHT22;14844;51.302;6.354;2023-12-20T07:40:24;6.60;99.90
27376;DHT22;14844;51.302;6.354;2023-12-20T07:42:49;6.60;99.90
27376;DHT22;14844;51.302;6.354;2023-12-20T07:45:15;6.60;99.90
27376;DHT22;14844;51.302;6.354;2023-12-20T07:47:58;6.60;99.90
27376;DHT22;14844;51.302;6.354;2023-12-20T07:50:55;6.60;99.90
27376;DHT22;14844;51.302;6.354;2023-12-20T07:53:52;6.60;99.90
27376;DHT22;14844;51.302;6.354;2023-12-20T07:56:32;6.60;99.90
27376;DHT22;14844;51.302;6.354;2023-12-20T07:59:27;6.50;99.90
27376;DHT22;14844;51.302;6.354;2023-12-20T08:01:59;6.50;99.90
27376;DHT22;14844;51.302;6.354;2023-12-20T08:04:38;6.50;99.90
27376;DHT22;14844;51.302;6.354;2023-12-20T08:07:16;6.50;99.90
27376;DHT22;14844;51.302;6.354;2023-12-20T08:13:25;6.40;99.90
27376;DHT22;14844;51.302;6.354;2023-12-20T08:15:54;6.40;99.90
27376;DHT22;14844;51.302;6.354;2023-12-20T08:18:58;6.40;99.90
27376;DHT22;14844;51.302;6.354;2023-12-20T08:21:32;6.40;99.90
27376;DHT22;14844;51.302;6.354;2023-12-20T08:27:06;6.40;99.90
27376;DHT22;14844;51.302;6.354;2023-12-20T08:29:35;6.40;99.90
27376;DHT22;14844;51.302;6.354;2023-12-20T08:32:24;6.40;99.90
27376;DHT22;14844;51.302;6.354;2023-12-20T08:35:07;6.40;99.90
27376;DHT22;14844;51.302;6.354;2023-12-20T08:37:55;6.40;99.90
27376;DHT22;14844;51.302;6.354;2023-12-20T08:40:26;6.50;99.90
27376;DHT22;14844;51.302;6.354;2023-12-20T08:43:15;6.50;99.90
27376;DHT22;14844;51.302;6.354;2023-12-20T08:45:49;6.50;99.90
27376;DHT22;14844;51.302;6.354;2023-12-20T08:48:24;6.50;99.90
27376;DHT22;14844;51.302;6.354;2023-12-20T08:54:08;6.50;99.90
27376;DHT22;14844;51.302;6.354;2023-12-20T08:59:43;6.60;99.90
27376;DHT22;14844;51.302;6.354;2023-12-20T09:02:17;6.60;99.90
27376;DHT22;14844;51.302;6.354;2023-12-20T09:05:06;6.60;99.90
27376;DHT22;14844;51.302;6.354;2023-12-20T09:07:40;6.60;99.90
27376;DHT22;14844;51.302;6.354;2023-12-20T09:10:14;6.70;99.90
27376;DHT22;14844;51.302;6.354;2023-12-20T09:12:49;6.70;99.90
27376;DHT22;14844;51.302;6.354;2023-12-20T09:16:04;6.70;99.90
27376;DHT22;14844;51.302;6.354;2023-12-20T09:18:46;6.70;99.90
27376;DHT22;14844;51.302;6.354;2023-12-20T09:21:39;6.70;99.90
27376;DHT22;14844;51.302;6.354;2023-12-20T09:24:35;6.80;99.90
27376;DHT22;14844;51.302;6.354;2023-12-20T09:27:17;6.80;99.90
27376;DHT22;14844;51.302;6.354;2023-12-20T09:30:25;6.90;99.90
27376;DHT22;14844;51.302;6.354;2023-12-20T09:33:11;6.90;99.90
27376;DHT22;14844;51.302;6.354;2023-12-20T09:36:14;6.90;99.90
27376;DHT22;14844;51.302;6.354;2023-12-20T09:38:49;6.90;99.90
27376;DHT22;14844;51.302;6.354;2023-12-20T09:41:21;6.90;99.90
27376;DHT22;14844;51.302;6.354;2023-12-20T09:43:49;7.00;99.90
27376;DHT22;14844;51.302;6.354;2023-12-20T09:46:17;7.00;99.90
27376;DHT22;14844;51.302;6.354;2023-12-20T09:48:56;7.00;99.90
27376;DHT22;14844;51.302;6.354;2023-12-20T09:51:31;6.90;99.90
27376;DHT22;14844;51.302;6.354;2023-12-20T09:54:21;6.90;99.90
27376;DHT22;14844;51.302;6.354;2023-12-20T09:56:58;6.90;99.90
27376;DHT22;14844;51.302;6.354;2023-12-20T09:59:37;6.90;99.90
27376;DHT22;14844;51.302;6.354;2023-12-20T10:02:12;6.90;99.90
27376;DHT22;14844;51.302;6.354;2023-12-20T10:07:37;6.90;99.90
27376;DHT22;14844;51.302;6.354;2023-12-20T10:10:04;7.00;99.90
27376;DHT22;14844;51.302;6.354;2023-12-20T10:13:03;7.00;99.90
27376;DHT22;14844;51.302;6.354;2023-12-20T10:15:36;7.00;99.90
27376;DHT22;14844;51.302;6.354;2023-12-20T10:18:06;7.10;99.90
27376;DHT22;14844;51.302;6.354;2023-12-20T10:20:34;7.10;99.90
27376;DHT22;14844;51.302;6.354;2023-12-20T10:23:03;7.20;99.90
27376;DHT22;14844;51.302;6.354;2023-12-20T10:25:32;7.20;99.90
27376;DHT22;14844;51.302;6.354;2023-12-20T10:28:18;7.30;99.90
27376;DHT22;14844;51.302;6.354;2023-12-20T10:30:58;7.30;99.90
27376;DHT22;14844;51.302;6.354;2023-12-20T10:33:33;7.30;99.90
27376;DHT22;14844;51.302;6.354;2023-12-20T10:36:02;7.30;99.90
27376;DHT22;14844;51.302;6.354;2023-12-20T10:38:35;7.30;99.90
27376;DHT22;14844;51.302;6.354;2023-12-20T10:41:36;7.30;99.90
27376;DHT22;14844;51.302;6.354;2023-12-20T10:44:09;7.40;99.90
27376;DHT22;14844;51.302;6.354;2023-12-20T10:56:25;7.40;99.90
27376;DHT22;14844;51.302;6.354;2023-12-20T10:59:17;7.30;99.90
27376;DHT22;14844;51.302;6.354;2023-12-20T11:01:54;7.30;99.90
27376;DHT22;14844;51.302;6.354;2023-12-20T11:04:43;7.30;99.90
27376;DHT22;14844;51.302;6.354;2023-12-20T11:09:42;7.30;99.90
27376;DHT22;14844;51.302;6.354;2023-12-20T11:12:22;7.30;99.90
27376;DHT22;14844;51.302;6.354;2023-12-20T11:14:52;7.30;99.90
27376;DHT22;14844;51.302;6.354;2023-12-20T11:17:18;7.30;99.90
27376;DHT22;14844;51.302;6.354;2023-12-20T11:22:27;7.30;99.90
27376;DHT22;14844;51.302;6.354;2023-12-20T11:24:53;7.30;99.90
27376;DHT22;14844;51.302;6.354;2023-12-20T11:27:21;7.30;99.90
27376;DHT22;14844;51.302;6.354;2023-12-20T11:29:54;7.40;99.90
27376;DHT22;14844;51.302;6.354;2023-12-20T11:34:55;7.50;99.90
27376;DHT22;14844;51.302;6.354;2023-12-20T11:37:21;7.50;99.90
27376;DHT22;14844;51.302;6.354;2023-12-20T11:39:55;7.60;99.90
27376;DHT22;14844;51.302;6.354;2023-12-20T11:42:22;7.50;99.90
27376;DHT22;14844;51.302;6.354;2023-12-20T11:44:47;7.60;99.90
27376;DHT22;14844;51.302;6.354;2023-12-20T11:47:13;7.60;99.90
27376;DHT22;14844;51.302;6.354;2023-12-20T11:49:41;7.60;99.90
27376;DHT22;14844;51.302;6.354;2023-12-20T11:52:06;7.50;99.90
27376;DHT22;14844;51.302;6.354;2023-12-20T11:54:32;7.50;99.90
27376;DHT22;14844;51.302;6.354;2023-12-20T11:56:58;7.40;99.90
27376;DHT22;14844;51.302;6.354;2023-12-20T11:59:23;7.40;99.90
27376;DHT22;14844;51.302;6.354;2023-12-20T12:01:50;7.50;99.90
27376;DHT22;14844;51.302;6.354;2023-12-20T12:04:16;7.50;99.90
27376;DHT22;14844;51.302;6.354;2023-12-20T12:06:43;7.50;99.90
27376;DHT22;14844;51.302;6.354;2023-12-20T12:09:10;7.50;99.90
27376;DHT22;14844;51.302;6.354;2023-12-20T12:11:35;7.40;99.90
27376;DHT22;14844;51.302;6.354;2023-12-20T12:14:01;7.40;99.90
27376;DHT22;14844;51.302;6.354;2023-12-20T12:16:27;7.50;99.90
27376;DHT22;14844;51.302;6.354;2023-12-20T12:18:57;7.50;99.90
27376;DHT22;14844;51.302;6.354;2023-12-20T12:21:23;7.50;99.90
27376;DHT22;14844;51.302;6.354;2023-12-20T12:23:48;7.50;99.90
27376;DHT22;14844;51.302;6.354;2023-12-20T12:26:14;7.40;99.90
27376;DHT22;14844;51.302;6.354;2023-12-20T12:28:41;7.50;99.90
27376;DHT22;14844;51.302;6.354;2023-12-20T12:31:07;7.40;99.90
27376;DHT22;14844;51.302;6.354;2023-12-20T12:33:33;7.40;99.90
27376;DHT22;14844;51.302;6.354;2023-12-20T12:36:03;7.30;99.90
27376;DHT22;14844;51.302;6.354;2023-12-20T12:38:30;7.30;99.90
27376;DHT22;14844;51.302;6.354;2023-12-20T12:40:56;7.20;99.90
27376;DHT22;14844;51.302;6.354;2023-12-20T12:43:23;7.10;99.90
27376;DHT22;14844;51.302;6.354;2023-12-20T12:45:51;7.10;99.90
27376;DHT22;14844;51.302;6.354;2023-12-20T12:48:20;7.00;99.90
27376;DHT22;14844;51.302;6.354;2023-12-20T12:50:46;7.00;99.90
27376;DHT22;14844;51.302;6.354;2023-12-20T12:53:46;7.00;99.90
27376;DHT22;14844;51.302;6.354;2023-12-20T12:56:15;7.00;99.90
27376;DHT22;14844;51.302;6.354;2023-12-20T12:58:43;7.00;99.90
27376;DHT22;14844;51.302;6.354;2023-12-20T13:01:11;7.00;99.90
27376;DHT22;14844;51.302;6.354;2023-12-20T13:03:52;7.00;99.90
27376;DHT22;14844;51.302;6.354;2023-12-20T13:06:29;7.00;99.90
27376;DHT22;14844;51.302;6.354;2023-12-20T13:08:54;7.00;99.90
27376;DHT22;14844;51.302;6.354;2023-12-20T13:11:20;7.00;99.90
27376;DHT22;14844;51.302;6.354;2023-12-20T13:13:46;7.00;99.90
27376;DHT22;14844;51.302;6.354;2023-12-20T13:16:23;7.00;99.90
27376;DHT22;14844;51.302;6.354;2023-12-20T13:25:44;6.90;99.90
27376;DHT22;14844;51.302;6.354;2023-12-20T13:28:22;6.90;99.90
27376;DHT22;14844;51.302;6.354;2023-12-20T13:34:33;6.90;99.90
27376;DHT22;14844;51.302;6.354;2023-12-20T13:37:04;6.90;99.90
27376;DHT22;14844;51.302;6.354;2023-12-20T13:39:35;6.90;99.90
27376;DHT22;14844;51.302;6.354;2023-12-20T13:42:06;7.00;99.90
27376;DHT22;14844;51.302;6.354;2023-12-20T13:44:33;7.00;99.90
27376;DHT22;14844;51.302;6.354;2023-12-20T13:46:59;7.00;99.90
27376;DHT22;14844;51.302;6.354;2023-12-20T13:49:25;7.00;99.90
27376;DHT22;14844;51.302;6.354;2023-12-20T13:51:51;7.10;99.90
27376;DHT22;14844;51.302;6.354;2023-12-20T13:54:16;7.10;99.90
27376;DHT22;14844;51.302;6.354;2023-12-20T13:56:45;7.20;99.90
27376;DHT22;14844;51.302;6.354;2023-12-20T13:59:11;7.10;99.90
27376;DHT22;14844;51.302;6.354;2023-12-20T14:01:57;7.20;99.90
27376;DHT22;14844;51.302;6.354;2023-12-20T14:04:22;7.20;99.90
27376;DHT22;14844;51.302;6.354;2023-12-20T14:06:48;7.20;99.90
27376;DHT22;14844;51.302;6.354;2023-12-20T14:09:14;7.30;99.90
27376;DHT22;14844;51.302;6.354;2023-12-20T14:11:40;7.30;99.90
27376;DHT22;14844;51.302;6.354;2023-12-20T14:14:07;7.30;99.90
27376;DHT22;14844;51.302;6.354;2023-12-20T14:16:34;7.40;99.90
27376;DHT22;14844;51.302;6.354;2023-12-20T14:19:00;7.40;99.90
27376;DHT22;14844;51.302;6.354;2023-12-20T14:21:25;7.40;99.90
27376;DHT22;14844;51.302;6.354;2023-12-20T14:23:51;7.40;99.90
27376;DHT22;14844;51.302;6.354;2023-12-20T14:26:17;7.40;99.90
27376;DHT22;14844;51.302;6.354;2023-12-20T14:28:46;7.50;99.90
27376;DHT22;14844;51.302;6.354;2023-12-20T14:31:11;7.50;99.90
27376;DHT22;14844;51.302;6.354;2023-12-20T14:33:37;7.50;99.90
27376;DHT22;14844;51.302;6.354;2023-12-20T14:36:07;7.60;99.90
27376;DHT22;14844;51.302;6.354;2023-12-20T14:38:38;7.60;99.90
27376;DHT22;14844;51.302;6.354;2023-12-20T14:41:04;7.60;99.90
27376;DHT22;14844;51.302;6.354;2023-12-20T14:43:33;7.60;99.90
27376;DHT22;14844;51.302;6.354;2023-12-20T14:45:58;7.60;99.90
27376;DHT22;14844;51.302;6.354;2023-12-20T14:48:24;7.60;99.90
27376;DHT22;14844;51.302;6.354;2023-12-20T14:50:50;7.60;99.90
27376;DHT22;14844;51.302;6.354;2023-12-20T14:53:16;7.60;99.90
27376;DHT22;14844;51.302;6.354;2023-12-20T14:55:42;7.60;99.90
27376;DHT22;14844;51.302;6.354;2023-12-20T14:58:08;7.60;99.90
27376;DHT22;14844;51.302;6.354;2023-12-20T15:00:34;7.60;99.90
27376;DHT22;14844;51.302;6.354;2023-12-20T15:02:59;7.70;99.90
27376;DHT22;14844;51.302;6.354;2023-12-20T15:05:25;7.70;99.90
27376;DHT22;14844;51.302;6.354;2023-12-20T15:07:52;7.70;99.90
27376;DHT22;14844;51.302;6.354;2023-12-20T15:10:18;7.70;99.90
27376;DHT22;14844;51.302;6.354;2023-12-20T15:12:44;7.70;99.90
27376;DHT22;14844;51.302;6.354;2023-12-20T15:15:12;7.70;99.90
27376;DHT22;14844;51.302;6.354;2023-12-20T15:17:39;7.70;99.90
27376;DHT22;14844;51.302;6.354;2023-12-20T15:20:08;7.70;99.90
27376;DHT22;14844;51.302;6.354;2023-12-20T15:22:37;7.70;99.90
27376;DHT22;14844;51.302;6.354;2023-12-20T15:25:03;7.70;99.90
27376;DHT22;14844;51.302;6.354;2023-12-20T15:27:31;7.70;99.90
27376;DHT22;14844;51.302;6.354;2023-12-20T15:29:58;7.70;99.90
27376;DHT22;14844;51.302;6.354;2023-12-20T15:32:24;7.70;99.90
27376;DHT22;14844;51.302;6.354;2023-12-20T15:34:49;7.60;99.90
27376;DHT22;14844;51.302;6.354;2023-12-20T15:40:37;7.60;99.90
27376;DHT22;14844;51.302;6.354;2023-12-20T15:43:03;7.60;99.90
27376;DHT22;14844;51.302;6.354;2023-12-20T15:45:29;7.60;99.90
27376;DHT22;14844;51.302;6.354;2023-12-20T15:47:54;7.60;99.90
27376;DHT22;14844;51.302;6.354;2023-12-20T15:50:20;7.60;99.90
27376;DHT22;14844;51.302;6.354;2023-12-20T15:52:45;7.60;99.90
27376;DHT22;14844;51.302;6.354;2023-12-20T15:55:11;7.60;99.90
27376;DHT22;14844;51.302;6.354;2023-12-20T15:57:37;7.70;99.90
27376;DHT22;14844;51.302;6.354;2023-12-20T16:00:03;7.70;99.90
27376;DHT22;14844;51.302;6.354;2023-12-20T16:02:30;7.70;99.90
27376;DHT22;14844;51.302;6.354;2023-12-20T16:04:55;7.70;99.90
27376;DHT22;14844;51.302;6.354;2023-12-20T16:07:21;7.70;99.90
27376;DHT22;14844;51.302;6.354;2023-12-20T16:09:46;7.70;99.90
27376;DHT22;14844;51.302;6.354;2023-12-20T16:12:12;7.70;99.90
27376;DHT22;14844;51.302;6.354;2023-12-20T16:14:38;7.70;99.90
27376;DHT22;14844;51.302;6.354;2023-12-20T16:17:03;7.70;99.90
27376;DHT22;14844;51.302;6.354;2023-12-20T16:19:30;7.70;99.90
27376;DHT22;14844;51.302;6.354;2023-12-20T16:21:56;7.70;99.90
27376;DHT22;14844;51.302;6.354;2023-12-20T16:24:22;7.70;99.90
27376;DHT22;14844;51.302;6.354;2023-12-20T16:26:48;7.80;99.90
27376;DHT22;14844;51.302;6.354;2023-12-20T16:29:14;7.70;99.90
27376;DHT22;14844;51.302;6.354;2023-12-20T16:31:39;7.70;99.90
27376;DHT22;14844;51.302;6.354;2023-12-20T16:34:05;7.70;99.90
27376;DHT22;14844;51.302;6.354;2023-12-20T16:36:51;7.70;99.90
27376;DHT22;14844;51.302;6.354;2023-12-20T16:39:24;7.70;99.90
27376;DHT22;14844;51.302;6.354;2023-12-20T16:41:49;7.70;99.90
27376;DHT22;14844;51.302;6.354;2023-12-20T16:44:16;7.80;99.90
27376;DHT22;14844;51.302;6.354;2023-12-20T16:46:42;7.80;99.90
27376;DHT22;14844;51.302;6.354;2023-12-20T16:49:07;7.80;99.90
27376;DHT22;14844;51.302;6.354;2023-12-20T16:51:36;7.80;99.90
27376;DHT22;14844;51.302;6.354;2023-12-20T16:54:02;7.80;99.90
27376;DHT22;14844;51.302;6.354;2023-12-20T16:56:28;7.80;99.90
27376;DHT22;14844;51.302;6.354;2023-12-20T16:59:11;7.90;99.90
27376;DHT22;14844;51.302;6.354;2023-12-20T17:01:37;7.80;99.90
27376;DHT22;14844;51.302;6.354;2023-12-20T17:04:05;7.90;99.90
27376;DHT22;14844;51.302;6.354;2023-12-20T17:06:30;7.90;99.90
27376;DHT22;14844;51.302;6.354;2023-12-20T17:09:04;7.90;99.90
27376;DHT22;14844;51.302;6.354;2023-12-20T17:11:37;7.90;99.90
27376;DHT22;14844;51.302;6.354;2023-12-20T17:14:08;7.80;99.90
27376;DHT22;14844;51.302;6.354;2023-12-20T17:16:41;7.80;99.90
27376;DHT22;14844;51.302;6.354;2023-12-20T17:19:18;7.70;99.90
27376;DHT22;14844;51.302;6.354;2023-12-20T17:21:49;7.70;99.90
27376;DHT22;14844;51.302;6.354;2023-12-20T17:24:23;7.70;99.90
27376;DHT22;14844;51.302;6.354;2023-12-20T17:26:49;7.70;99.90
27376;DHT22;14844;51.302;6.354;2023-12-20T17:29:17;7.70;99.90
27376;DHT22;14844;51.302;6.354;2023-12-20T17:31:45;7.80;99.90
27376;DHT22;14844;51.302;6.354;2023-12-20T17:34:11;7.80;99.90
27376;DHT22;14844;51.302;6.354;2023-12-20T17:36:40;7.80;99.90
27376;DHT22;14844;51.302;6.354;2023-12-20T17:39:07;7.90;99.90
27376;DHT22;14844;51.302;6.354;2023-12-20T17:41:32;7.90;99.90
27376;DHT22;14844;51.302;6.354;2023-12-20T17:44:01;7.90;99.90
27376;DHT22;14844;51.302;6.354;2023-12-20T17:46:32;8.00;99.90
27376;DHT22;14844;51.302;6.354;2023-12-20T17:48:57;8.00;99.90
27376;DHT22;14844;51.302;6.354;2023-12-20T17:51:25;8.00;99.90
27376;DHT22;14844;51.302;6.354;2023-12-20T17:53:50;8.00;99.90
27376;DHT22;14844;51.302;6.354;2023-12-20T17:56:19;8.00;99.90
27376;DHT22;14844;51.302;6.354;2023-12-20T17:58:44;8.00;99.90
27376;DHT22;14844;51.302;6.354;2023-12-20T18:01:10;8.10;99.90
27376;DHT22;14844;51.302;6.354;2023-12-20T18:03:40;8.10;99.90
27376;DHT22;14844;51.302;6.354;2023-12-20T18:06:06;8.10;99.90
27376;DHT22;14844;51.302;6.354;2023-12-20T18:08:31;8.20;99.90
27376;DHT22;14844;51.302;6.354;2023-12-20T18:10:57;8.20;99.90
27376;DHT22;14844;51.302;6.354;2023-12-20T18:13:23;8.20;99.90
27376;DHT22;14844;51.302;6.354;2023-12-20T18:15:51;8.20;99.90
27376;DHT22;14844;51.302;6.354;2023-12-20T18:18:16;8.30;99.90
27376;DHT22;14844;51.302;6.354;2023-12-20T18:20:42;8.30;99.90
27376;DHT22;14844;51.302;6.354;2023-12-20T18:23:08;8.30;99.90
27376;DHT22;14844;51.302;6.354;2023-12-20T18:25:36;8.30;99.90
27376;DHT22;14844;51.302;6.354;2023-12-20T18:28:02;8.30;99.90
27376;DHT22;14844;51.302;6.354;2023-12-20T18:30:27;8.30;99.90
27376;DHT22;14844;51.302;6.354;2023-12-20T18:32:53;8.30;99.90
27376;DHT22;14844;51.302;6.354;2023-12-20T18:35:19;8.30;99.90
27376;DHT22;14844;51.302;6.354;2023-12-20T18:37:45;8.30;99.90
27376;DHT22;14844;51.302;6.354;2023-12-20T18:40:10;8.30;99.90
27376;DHT22;14844;51.302;6.354;2023-12-20T18:42:37;8.30;99.90
27376;DHT22;14844;51.302;6.354;2023-12-20T18:45:03;8.30;99.90
27376;DHT22;14844;51.302;6.354;2023-12-20T18:47:30;8.30;99.90
27376;DHT22;14844;51.302;6.354;2023-12-20T18:50:03;8.40;99.90
27376;DHT22;14844;51.302;6.354;2023-12-20T18:52:33;8.40;99.90
27376;DHT22;14844;51.302;6.354;2023-12-20T18:54:58;8.40;99.90
27376;DHT22;14844;51.302;6.354;2023-12-20T18:57:24;8.50;99.90
27376;DHT22;14844;51.302;6.354;2023-12-20T18:59:49;8.50;99.90
27376;DHT22;14844;51.302;6.354;2023-12-20T19:02:15;8.50;99.90
27376;DHT22;14844;51.302;6.354;2023-12-20T19:04:41;8.50;99.90
27376;DHT22;14844;51.302;6.354;2023-12-20T19:07:06;8.60;99.90
27376;DHT22;14844;51.302;6.354;2023-12-20T19:09:32;8.60;99.90
27376;DHT22;14844;51.302;6.354;2023-12-20T19:11:58;8.60;99.90
27376;DHT22;14844;51.302;6.354;2023-12-20T19:14:24;8.60;99.90
27376;DHT22;14844;51.302;6.354;2023-12-20T19:16:52;8.60;99.90
27376;DHT22;14844;51.302;6.354;2023-12-20T19:19:19;8.60;99.90
27376;DHT22;14844;51.302;6.354;2023-12-20T19:21:47;8.60;99.90
27376;DHT22;14844;51.302;6.354;2023-12-20T19:24:16;8.60;99.90
27376;DHT22;14844;51.302;6.354;2023-12-20T19:26:49;8.60;99.90
27376;DHT22;14844;51.302;6.354;2023-12-20T19:29:17;8.60;99.90
27376;DHT22;14844;51.302;6.354;2023-12-20T19:31:43;8.60;99.90
27376;DHT22;14844;51.302;6.354;2023-12-20T19:34:12;8.60;99.90
27376;DHT22;14844;51.302;6.354;2023-12-20T19:36:40;8.60;99.90
27376;DHT22;14844;51.302;6.354;2023-12-20T19:39:05;8.60;99.90
27376;DHT22;14844;51.302;6.354;2023-12-20T19:41:33;8.60;99.90
27376;DHT22;14844;51.302;6.354;2023-12-20T19:43:59;8.60;99.90
27376;DHT22;14844;51.302;6.354;2023-12-20T19:46:28;8.60;99.90
27376;DHT22;14844;51.302;6.354;2023-12-20T19:48:56;8.70;99.90
27376;DHT22;14844;51.302;6.354;2023-12-20T19:51:24;8.70;99.90
27376;DHT22;14844;51.302;6.354;2023-12-20T19:53:51;8.70;99.90
27376;DHT22;14844;51.302;6.354;2023-12-20T19:56:19;8.70;99.90
27376;DHT22;14844;51.302;6.354;2023-12-20T19:58:44;8.60;99.90
27376;DHT22;14844;51.302;6.354;2023-12-20T20:01:10;8.60;99.90
27376;DHT22;14844;51.302;6.354;2023-12-20T20:03:36;8.60;99.90
27376;DHT22;14844;51.302;6.354;2023-12-20T20:06:02;8.60;99.90
27376;DHT22;14844;51.302;6.354;2023-12-20T20:08:30;8.60;99.90
27376;DHT22;14844;51.302;6.354;2023-12-20T20:10:59;8.60;99.90
27376;DHT22;14844;51.302;6.354;2023-12-20T20:13:24;8.60;99.90
27376;DHT22;14844;51.302;6.354;2023-12-20T20:15:52;8.60;99.90
27376;DHT22;14844;51.302;6.354;2023-12-20T20:18:19;8.50;99.90
27376;DHT22;14844;51.302;6.354;2023-12-20T20:20:45;8.50;99.90
27376;DHT22;14844;51.302;6.354;2023-12-20T20:23:11;8.50;99.90
27376;DHT22;14844;51.302;6.354;2023-12-20T20:25:45;8.40;99.90
27376;DHT22;14844;51.302;6.354;2023-12-20T20:28:13;8.40;99.90
27376;DHT22;14844;51.302;6.354;2023-12-20T20:30:44;8.40;99.90
27376;DHT22;14844;51.302;6.354;2023-12-20T20:33:09;8.30;99.90
27376;DHT22;14844;51.302;6.354;2023-12-20T20:35:35;8.30;99.90
27376;DHT22;14844;51.302;6.354;2023-12-20T20:38:03;8.30;99.90
27376;DHT22;14844;51.302;6.354;2023-12-20T20:40:33;8.30;99.90
27376;DHT22;14844;51.302;6.354;2023-12-20T20:43:02;8.30;99.90
27376;DHT22;14844;51.302;6.354;2023-12-20T20:45:30;8.30;99.90
27376;DHT22;14844;51.302;6.354;2023-12-20T20:47:55;8.30;99.90
27376;DHT22;14844;51.302;6.354;2023-12-20T20:50:21;8.30;99.90
27376;DHT22;14844;51.302;6.354;2023-12-20T20:52:47;8.30;99.90
27376;DHT22;14844;51.302;6.354;2023-12-20T20:55:17;8.30;99.90
27376;DHT22;14844;51.302;6.354;2023-12-20T20:57:42;8.40;99.90
27376;DHT22;14844;51.302;6.354;2023-12-20T21:00:16;8.40;99.90
27376;DHT22;14844;51.302;6.354;2023-12-20T21:02:44;8.30;99.90
27376;DHT22;14844;51.302;6.354;2023-12-20T21:05:10;8.40;99.90
27376;DHT22;14844;51.302;6.354;2023-12-20T21:07:35;8.40;99.90
27376;DHT22;14844;51.302;6.354;2023-12-20T21:10:01;8.40;99.90
27376;DHT22;14844;51.302;6.354;2023-12-20T21:12:27;8.40;99.90
27376;DHT22;14844;51.302;6.354;2023-12-20T21:14:55;8.40;99.90
27376;DHT22;14844;51.302;6.354;2023-12-20T21:17:24;8.50;99.90
27376;DHT22;14844;51.302;6.354;2023-12-20T21:19:49;8.50;99.90
27376;DHT22;14844;51.302;6.354;2023-12-20T21:22:16;8.50;99.90
27376;DHT22;14844;51.302;6.354;2023-12-20T21:24:44;8.50;99.90
27376;DHT22;14844;51.302;6.354;2023-12-20T21:27:10;8.50;99.90
27376;DHT22;14844;51.302;6.354;2023-12-20T21:29:35;8.60;99.90